General Galarza, Argentina
Current Conditions -  °F | °C
As of 6:00 PM on Thursday 23 Oct 2014 (Local Time) from SAAR Reporting Station
Clear Clear  
Wind Chill: 86°   Ceiling: Unl
Heat Index: 87°   Visibility: 6mi
Dew Point: 64°   Wind: 9mph
Humidity: 48%   Direction: 70°ENE
Pressure: 29.85"   Gusts: NA
Location:  32.72°S, 59.4°W
Report Text: SAAR 232100Z 07008KT CAVOK 30/18 Q1011
Loading
Personal Weather Stations






























Interactive Weather Map
Tropical Storm Tracking
New forecast layout! Learn more

10-Day Weather Forecast

Advertisements
Track Severe Weather on mobile